createdAt,value
2018-08-19T00:00:59.551Z,18.35
2018-08-19T00:03:28.662Z,18.28
2018-08-19T00:05:57.303Z,18.19
2018-08-19T00:08:26.340Z,18.14
2018-08-19T00:11:01.939Z,18.21
2018-08-19T00:13:30.710Z,18.18
2018-08-19T00:15:59.487Z,18.16
2018-08-19T00:18:28.168Z,18.09
2018-08-19T00:20:57.404Z,18.07
2018-08-19T00:23:26.174Z,18.09
2018-08-19T00:25:54.845Z,18.09
2018-08-19T00:28:23.480Z,18.04
2018-08-19T00:30:52.105Z,18.11
2018-08-19T00:33:21.476Z,18.20
2018-08-19T00:35:50.480Z,18.32
2018-08-19T00:38:19.196Z,18.33
2018-08-19T00:40:47.860Z,18.21
2018-08-19T00:43:16.465Z,18.18
2018-08-19T00:45:45.081Z,18.17
2018-08-19T00:48:13.771Z,18.14
2018-08-19T00:50:42.752Z,18.13
2018-08-19T00:53:12.018Z,18.11
2018-08-19T00:55:45.964Z,17.97
2018-08-19T00:58:16.904Z,17.98
2018-08-19T01:00:45.584Z,17.93
2018-08-19T01:03:14.538Z,17.96
2018-08-19T01:05:43.238Z,17.88
2018-08-19T01:08:13.200Z,17.87
2018-08-19T01:10:42.052Z,17.81
2018-08-19T01:13:11.901Z,17.83
2018-08-19T01:15:40.659Z,17.88
2018-08-19T01:18:09.592Z,17.88
2018-08-19T01:20:38.264Z,17.89
2018-08-19T01:23:06.911Z,17.93
2018-08-19T01:25:35.552Z,17.86
2018-08-19T01:28:04.724Z,17.78
2018-08-19T01:30:33.356Z,17.70
2018-08-19T01:33:02.144Z,17.60
2018-08-19T01:35:37.868Z,17.63
2018-08-19T01:38:07.911Z,17.67
2018-08-19T01:40:36.706Z,17.59
2018-08-19T01:43:07.098Z,17.59
2018-08-19T01:45:35.985Z,17.55
2018-08-19T01:48:04.601Z,17.50
2018-08-19T01:50:33.221Z,17.57
2018-08-19T01:53:01.831Z,17.61
2018-08-19T01:55:31.368Z,17.63
2018-08-19T01:57:59.997Z,17.54
2018-08-19T02:00:28.648Z,17.38
2018-08-19T02:03:00.266Z,17.33
2018-08-19T02:05:28.987Z,17.25
2018-08-19T02:07:59.862Z,17.25
2018-08-19T02:10:29.363Z,17.32
2018-08-19T02:12:58.555Z,17.38
2018-08-19T02:15:28.202Z,17.46
2018-08-19T02:17:57.661Z,17.44
2018-08-19T02:20:32.187Z,17.49
2018-08-19T02:23:02.048Z,17.54
2018-08-19T02:25:34.015Z,17.48
2018-08-19T02:28:03.412Z,17.51
2018-08-19T02:30:32.060Z,17.46
2018-08-19T02:35:27.398Z,17.33
2018-08-19T02:37:56.021Z,17.41
2018-08-19T02:40:31.626Z,17.31
2018-08-19T02:43:00.282Z,17.25
2018-08-19T02:45:28.925Z,17.24
2018-08-19T02:47:57.588Z,17.25
2018-08-19T02:50:26.297Z,17.16
2018-08-19T02:52:54.946Z,17.19
2018-08-19T02:55:25.868Z,17.18
2018-08-19T02:57:59.855Z,17.14
2018-08-19T03:00:28.516Z,17.01
2018-08-19T03:02:57.492Z,16.91
2018-08-19T03:05:26.090Z,16.88
2018-08-19T03:07:55.455Z,16.85
2018-08-19T03:10:24.099Z,16.77
2018-08-19T03:12:52.748Z,16.77
2018-08-19T03:15:21.424Z,16.76
2018-08-19T03:17:50.413Z,16.74
2018-08-19T03:20:19.301Z,16.70
2018-08-19T03:22:47.938Z,16.66
2018-08-19T03:25:16.888Z,16.68
2018-08-19T03:27:45.482Z,16.81
2018-08-19T03:30:15.493Z,16.93
2018-08-19T03:32:50.260Z,16.94
2018-08-19T03:35:20.924Z,16.90
2018-08-19T03:37:53.253Z,16.79
2018-08-19T03:40:25.002Z,16.73
2018-08-19T03:42:53.911Z,16.69
2018-08-19T03:45:22.819Z,16.67
2018-08-19T03:47:52.568Z,16.62
2018-08-19T03:50:23.706Z,16.56
2018-08-19T03:52:53.343Z,16.53
2018-08-19T03:55:33.209Z,16.55
2018-08-19T03:58:06.786Z,16.58
2018-08-19T04:00:38.680Z,16.62
2018-08-19T04:03:14.902Z,16.69
2018-08-19T04:05:46.003Z,16.77
2018-08-19T04:08:15.574Z,16.80
2018-08-19T04:10:45.442Z,16.91
2018-08-19T04:13:32.522Z,16.96
2018-08-19T04:16:02.261Z,16.93
2018-08-19T04:18:35.914Z,16.89
2018-08-19T04:21:08.105Z,16.87
2018-08-19T04:23:37.255Z,16.87
2018-08-19T04:26:06.085Z,16.89
2018-08-19T04:28:37.228Z,17.03
2018-08-19T04:31:12.090Z,17.16
2018-08-19T04:33:42.274Z,17.26
2018-08-19T04:36:12.383Z,17.41
2018-08-19T04:38:41.341Z,17.53
2018-08-19T04:41:10.025Z,17.66
2018-08-19T04:43:38.653Z,17.80
2018-08-19T04:46:07.314Z,17.97
2018-08-19T04:48:36.452Z,18.11
2018-08-19T04:51:05.361Z,18.27
2018-08-19T04:53:35.205Z,18.47
2018-08-19T04:56:04.144Z,18.67
2018-08-19T04:58:32.782Z,18.90
2018-08-19T05:01:01.505Z,19.12
2018-08-19T05:03:30.098Z,19.36
2018-08-19T05:05:59.789Z,19.66
2018-08-19T05:08:28.624Z,19.92
2018-08-19T05:10:57.294Z,20.20
2018-08-19T05:13:28.513Z,20.44
2018-08-19T05:15:57.888Z,20.68
2018-08-19T05:18:27.171Z,21.00
2018-08-19T05:21:01.449Z,21.46
2018-08-19T05:23:30.690Z,21.85
2018-08-19T05:25:59.968Z,22.18
2018-08-19T05:28:29.211Z,22.72
2018-08-19T05:30:58.390Z,23.31
2018-08-19T05:33:27.632Z,23.94
2018-08-19T05:35:57.460Z,24.63
2018-08-19T05:38:26.745Z,25.59
2018-08-19T05:41:00.569Z,26.98
2018-08-19T05:43:30.367Z,28.63
2018-08-19T05:46:00.680Z,30.19
2018-08-19T05:48:30.279Z,31.29
2018-08-19T05:50:59.857Z,31.99
2018-08-19T05:53:29.116Z,31.84
2018-08-19T05:55:58.350Z,31.65
2018-08-19T05:58:27.612Z,32.20
2018-08-19T06:01:01.431Z,33.08
2018-08-19T06:03:30.813Z,34.24
2018-08-19T06:06:00.114Z,35.19
2018-08-19T06:08:29.385Z,35.65
2018-08-19T06:10:58.621Z,36.16
2018-08-19T06:13:28.965Z,36.76
2018-08-19T06:15:58.234Z,37.26
2018-08-19T06:18:27.343Z,38.17
2018-08-19T06:20:56.602Z,38.77
2018-08-19T06:23:25.539Z,38.77
2018-08-19T06:25:54.504Z,38.83
2018-08-19T06:28:23.440Z,38.96
2018-08-19T06:30:52.389Z,39.19
2018-08-19T06:33:21.354Z,39.63
2018-08-19T06:35:50.280Z,39.99
2018-08-19T06:38:19.376Z,40.60
2018-08-19T06:40:48.345Z,40.77
2018-08-19T06:43:17.354Z,40.99
2018-08-19T06:45:46.406Z,41.49
2018-08-19T06:48:15.337Z,42.11
2018-08-19T06:50:44.309Z,42.56
2018-08-19T06:53:18.640Z,42.82
2018-08-19T06:55:47.636Z,43.17
2018-08-19T06:58:16.564Z,43.67
2018-08-19T07:00:45.493Z,44.15
2018-08-19T07:03:14.473Z,43.73
2018-08-19T07:05:43.727Z,43.90
2018-08-19T07:08:13.833Z,44.28
2018-08-19T07:10:42.936Z,44.05
2018-08-19T07:13:13.337Z,43.74
2018-08-19T07:15:43.624Z,43.14
2018-08-19T07:18:14.342Z,41.80
2018-08-19T07:20:44.009Z,39.88
2018-08-19T07:23:13.428Z,38.53
2018-08-19T07:25:43.541Z,37.76
2018-08-19T07:28:13.652Z,37.02
2018-08-19T07:30:43.125Z,36.45
2018-08-19T07:33:13.041Z,35.78
2018-08-19T07:35:42.336Z,35.18
2018-08-19T07:38:12.469Z,34.65
2018-08-19T07:40:41.890Z,34.21
2018-08-19T07:43:11.188Z,33.60
2018-08-19T07:45:41.285Z,33.35
2018-08-19T07:48:10.535Z,33.07
2018-08-19T07:50:39.766Z,32.78
2018-08-19T07:53:09.053Z,32.51
2018-08-19T07:55:38.495Z,32.49
2018-08-19T07:58:08.142Z,33.78
2018-08-19T08:00:39.744Z,35.46
2018-08-19T08:03:09.228Z,37.22
2018-08-19T08:05:43.710Z,38.54
2018-08-19T08:08:12.932Z,38.91
2018-08-19T08:10:41.878Z,39.27
2018-08-19T08:13:11.883Z,39.64
2018-08-19T08:15:46.340Z,40.10
2018-08-19T08:18:15.612Z,40.62
2018-08-19T08:23:21.903Z,41.86
2018-08-19T08:25:50.888Z,42.35
2018-08-19T08:28:19.992Z,42.39
2018-08-19T08:30:48.899Z,42.28
2018-08-19T08:33:19.441Z,42.15
2018-08-19T08:35:54.776Z,41.60
2018-08-19T08:38:23.708Z,41.92
2018-08-19T08:40:53.113Z,42.35
2018-08-19T08:43:22.512Z,43.11
2018-08-19T08:45:51.687Z,43.73
2018-08-19T08:48:21.050Z,43.58
2018-08-19T08:50:50.029Z,43.62
2018-08-19T08:53:19.045Z,43.57
2018-08-19T08:55:48.254Z,44.00
2018-08-19T08:58:17.580Z,44.35
2018-08-19T09:00:47.486Z,44.35
2018-08-19T09:03:16.477Z,44.02
2018-08-19T09:05:45.585Z,42.98
2018-08-19T09:08:14.588Z,41.28
2018-08-19T09:10:43.531Z,39.84
2018-08-19T09:13:12.566Z,38.94
2018-08-19T09:15:41.821Z,38.27
2018-08-19T09:18:11.345Z,37.76
2018-08-19T09:20:40.563Z,37.22
2018-08-19T09:23:09.865Z,36.57
2018-08-19T09:25:39.228Z,36.01
2018-08-19T09:28:08.468Z,35.61
2018-08-19T09:30:41.269Z,35.35
2018-08-19T09:33:10.759Z,35.25
2018-08-19T09:35:41.168Z,35.01
2018-08-19T09:38:14.991Z,35.10
2018-08-19T09:40:44.562Z,35.26
2018-08-19T09:43:14.932Z,35.33
2018-08-19T09:45:44.525Z,35.33
2018-08-19T09:48:14.279Z,35.27
2018-08-19T09:50:44.093Z,35.06
2018-08-19T09:53:13.282Z,34.87
2018-08-19T09:55:44.719Z,34.80
2018-08-19T09:58:17.866Z,34.70
2018-08-19T10:00:52.704Z,34.56
2018-08-19T10:03:21.913Z,34.54
2018-08-19T10:05:51.186Z,34.62
2018-08-19T10:08:22.169Z,34.75
2018-08-19T10:10:51.769Z,34.80
2018-08-19T10:13:20.990Z,34.53
2018-08-19T10:15:50.209Z,34.09
2018-08-19T10:18:19.424Z,33.99
2018-08-19T10:20:48.617Z,33.95
2018-08-19T10:23:17.781Z,34.02
2018-08-19T10:25:47.006Z,34.06
2018-08-19T10:28:16.335Z,34.05
2018-08-19T10:30:50.646Z,34.06
2018-08-19T10:33:21.284Z,34.22
2018-08-19T10:35:50.540Z,34.38
2018-08-19T10:38:19.742Z,34.46
2018-08-19T10:40:57.533Z,34.60
2018-08-19T10:43:29.611Z,34.71
2018-08-19T10:45:58.883Z,34.74
2018-08-19T10:48:28.175Z,34.77
2018-08-19T10:50:57.368Z,34.81
2018-08-19T10:53:28.771Z,34.73
2018-08-19T10:56:00.793Z,34.61
2018-08-19T10:58:30.520Z,34.55
2018-08-19T11:00:59.871Z,34.47
2018-08-19T11:03:30.409Z,34.18
2018-08-19T11:05:59.637Z,34.00
2018-08-19T11:08:29.194Z,34.03
2018-08-19T11:11:00.101Z,34.03
2018-08-19T11:13:29.391Z,34.14
2018-08-19T11:15:59.327Z,34.19
2018-08-19T11:18:41.476Z,34.24
2018-08-19T11:21:20.885Z,33.81
2018-08-19T11:23:50.060Z,33.46
2018-08-19T11:26:19.289Z,33.31
2018-08-19T11:28:50.720Z,33.17
2018-08-19T11:31:26.136Z,32.98
2018-08-19T11:33:56.947Z,32.80
2018-08-19T11:36:32.737Z,32.81
2018-08-19T11:39:02.112Z,33.05
2018-08-19T11:41:33.337Z,33.20
2018-08-19T11:44:08.172Z,33.44
2018-08-19T11:46:38.176Z,33.66
2018-08-19T11:49:10.245Z,33.97
2018-08-19T11:51:51.084Z,33.88
2018-08-19T11:54:21.923Z,33.87
2018-08-19T11:56:58.341Z,33.76
2018-08-19T11:59:36.815Z,33.86
2018-08-19T12:02:07.939Z,34.03
2018-08-19T12:04:37.511Z,34.14
2018-08-19T12:07:06.813Z,34.22
2018-08-19T12:09:36.211Z,34.20
2018-08-19T12:12:06.040Z,34.13
2018-08-19T12:14:36.981Z,34.11
2018-08-19T12:17:09.467Z,34.11
2018-08-19T12:19:40.510Z,34.09
2018-08-19T12:22:10.077Z,34.03
2018-08-19T12:24:41.232Z,33.84
2018-08-19T12:27:12.726Z,33.51
2018-08-19T12:29:42.869Z,33.33
2018-08-19T12:32:17.478Z,33.27
2018-08-19T12:34:48.104Z,33.09
2018-08-19T12:37:19.038Z,33.10
2018-08-19T12:39:48.828Z,32.98
2018-08-19T12:42:18.450Z,32.77
2018-08-19T12:44:54.395Z,32.71
2018-08-19T12:47:25.888Z,32.53
2018-08-19T12:49:59.659Z,32.52
2018-08-19T12:52:30.087Z,32.53
2018-08-19T12:55:17.889Z,32.49
2018-08-19T12:57:51.425Z,32.54
2018-08-19T13:00:25.577Z,32.70
2018-08-19T13:02:55.071Z,32.53
2018-08-19T13:05:24.676Z,32.13
2018-08-19T13:07:54.072Z,32.11
2018-08-19T13:10:23.793Z,32.10
2018-08-19T13:12:54.293Z,32.18
2018-08-19T13:15:24.726Z,32.21
2018-08-19T13:17:54.032Z,32.20
2018-08-19T13:20:23.322Z,32.21
2018-08-19T13:22:58.008Z,32.31
2018-08-19T13:25:28.094Z,32.34
2018-08-19T13:27:58.154Z,32.23
2018-08-19T13:30:27.650Z,32.21
2018-08-19T13:32:56.920Z,32.23
2018-08-19T13:35:26.443Z,32.25
2018-08-19T13:37:55.675Z,32.34
2018-08-19T13:40:25.770Z,32.34
2018-08-19T13:42:54.986Z,32.40
2018-08-19T13:45:26.681Z,32.40
2018-08-19T13:47:56.630Z,32.48
2018-08-19T13:50:26.299Z,32.53
2018-08-19T13:52:55.585Z,32.58
2018-08-19T13:55:24.812Z,32.67
2018-08-19T13:57:54.090Z,32.65
2018-08-19T14:00:24.341Z,32.66
2018-08-19T14:02:53.580Z,32.62
2018-08-19T14:05:23.206Z,32.53
2018-08-19T14:07:52.490Z,32.40
2018-08-19T14:10:21.828Z,32.26
2018-08-19T14:12:51.072Z,32.25
2018-08-19T14:15:20.329Z,32.31
2018-08-19T14:17:49.642Z,32.35
2018-08-19T14:20:18.936Z,32.25
2018-08-19T14:22:48.190Z,32.21
2018-08-19T14:25:17.438Z,32.18
2018-08-19T14:27:46.727Z,32.12
2018-08-19T14:30:16.022Z,32.15
2018-08-19T14:32:46.689Z,32.17
2018-08-19T14:35:15.937Z,32.25
2018-08-19T14:37:48.909Z,32.23
2018-08-19T14:40:19.638Z,32.17
2018-08-19T14:42:49.072Z,32.11
2018-08-19T14:45:18.395Z,32.08
2018-08-19T14:47:47.675Z,32.07
2018-08-19T14:50:19.764Z,32.03
2018-08-19T14:52:49.450Z,31.99
2018-08-19T14:55:19.012Z,31.97
2018-08-19T14:57:48.259Z,31.99
2018-08-19T15:00:18.300Z,32.02
2018-08-19T15:02:47.495Z,31.90
2018-08-19T15:05:19.253Z,31.79
2018-08-19T15:07:48.979Z,31.79
2018-08-19T15:10:22.924Z,31.77
2018-08-19T15:12:52.636Z,31.81
2018-08-19T15:15:21.917Z,31.79
2018-08-19T15:17:56.575Z,31.68
2018-08-19T15:20:33.040Z,31.51
2018-08-19T15:23:20.764Z,31.50
2018-08-19T15:25:49.956Z,31.55
2018-08-19T15:28:19.390Z,31.58
2018-08-19T15:30:48.596Z,31.61
2018-08-19T15:33:17.826Z,31.59
2018-08-19T15:35:47.256Z,31.56
2018-08-19T15:38:16.429Z,31.52
2018-08-19T15:40:49.900Z,31.53
2018-08-19T15:43:19.421Z,31.50
2018-08-19T15:45:48.796Z,31.50
2018-08-19T15:48:18.829Z,31.38
2018-08-19T15:50:48.034Z,31.33
2018-08-19T15:53:19.101Z,31.28
2018-08-19T15:55:48.398Z,31.28
2018-08-19T15:58:17.608Z,31.26
2018-08-19T16:00:46.811Z,31.14
2018-08-19T16:03:16.033Z,31.08
2018-08-19T16:05:45.268Z,31.12
2018-08-19T16:08:14.502Z,31.03
2018-08-19T16:10:43.990Z,30.97
2018-08-19T16:13:13.492Z,30.80
2018-08-19T16:15:42.692Z,30.73
2018-08-19T16:18:12.229Z,30.68
2018-08-19T16:20:44.264Z,30.61
2018-08-19T16:23:13.617Z,30.50
2018-08-19T16:25:42.818Z,30.48
2018-08-19T16:28:12.233Z,30.40
2018-08-19T16:30:41.418Z,30.22
2018-08-19T16:33:10.635Z,30.21
2018-08-19T16:35:39.883Z,30.16
2018-08-19T16:38:09.111Z,30.04
2018-08-19T16:40:38.523Z,29.89
2018-08-19T16:43:07.752Z,29.71
2018-08-19T16:45:37.308Z,29.70
2018-08-19T16:50:57.784Z,29.61
2018-08-19T16:53:27.453Z,29.45
2018-08-19T16:55:56.661Z,29.31
2018-08-19T16:58:25.884Z,29.20
2018-08-19T17:00:55.417Z,29.12
2018-08-19T17:03:36.184Z,29.06
2018-08-19T17:06:08.418Z,28.97
2018-08-19T17:08:38.457Z,28.90
2018-08-19T17:11:08.828Z,28.86
2018-08-19T17:13:38.183Z,28.83
2018-08-19T17:16:07.945Z,28.87
2018-08-19T17:18:37.683Z,28.83
2018-08-19T17:21:07.257Z,28.82
2018-08-19T17:23:36.849Z,28.81
2018-08-19T17:26:11.874Z,28.71
2018-08-19T17:28:41.238Z,28.66
2018-08-19T17:31:10.449Z,28.64
2018-08-19T17:33:39.613Z,28.56
2018-08-19T17:36:09.243Z,28.46
2018-08-19T17:38:39.185Z,28.37
2018-08-19T17:41:08.386Z,28.29
2018-08-19T17:43:41.813Z,28.13
2018-08-19T17:46:13.040Z,27.91
2018-08-19T17:48:43.848Z,27.79
2018-08-19T17:51:25.123Z,27.63
2018-08-19T17:53:54.301Z,27.46
2018-08-19T17:56:23.505Z,27.32
2018-08-19T17:58:52.769Z,27.16
2018-08-19T18:01:22.490Z,27.09
2018-08-19T18:03:51.694Z,27.12
2018-08-19T18:06:20.905Z,27.04
2018-08-19T18:08:51.264Z,26.99
2018-08-19T18:11:21.746Z,26.89
2018-08-19T18:13:51.052Z,26.79
2018-08-19T18:16:20.864Z,26.69
2018-08-19T18:18:50.334Z,26.67
2018-08-19T18:21:19.541Z,26.50
2018-08-19T18:23:49.610Z,26.35
2018-08-19T18:26:18.858Z,26.27
2018-08-19T18:28:48.862Z,26.20
2018-08-19T18:31:22.282Z,26.15
2018-08-19T18:33:54.538Z,26.10
2018-08-19T18:36:25.150Z,26.00
2018-08-19T18:38:54.430Z,25.96
2018-08-19T18:41:39.647Z,25.88
2018-08-19T18:44:10.228Z,25.84
2018-08-19T18:46:39.555Z,25.83
2018-08-19T18:49:12.577Z,25.78
2018-08-19T18:51:43.555Z,25.76
2018-08-19T18:54:21.332Z,25.64
2018-08-19T18:56:50.549Z,25.55
2018-08-19T18:59:20.276Z,25.47
2018-08-19T19:01:49.561Z,25.41
2018-08-19T19:04:18.817Z,25.34
2018-08-19T19:06:48.018Z,25.25
2018-08-19T19:09:17.212Z,25.22
2018-08-19T19:11:49.188Z,25.13
2018-08-19T19:14:18.487Z,25.06
2018-08-19T19:16:50.108Z,25.00
2018-08-19T19:19:19.408Z,24.85
2018-08-19T19:21:52.700Z,24.81
2018-08-19T19:24:26.496Z,24.75
2018-08-19T19:26:55.720Z,24.70
2018-08-19T19:29:27.653Z,24.70
2018-08-19T19:31:59.109Z,24.67
2018-08-19T19:34:30.925Z,24.53
2018-08-19T19:37:00.163Z,24.49
2018-08-19T19:39:29.376Z,24.51
2018-08-19T19:42:02.708Z,24.52
2018-08-19T19:44:36.069Z,24.44
2018-08-19T19:47:06.707Z,24.41
2018-08-19T19:49:43.648Z,24.33
2018-08-19T19:52:12.993Z,24.23
2018-08-19T19:54:42.220Z,24.15
2018-08-19T19:57:11.449Z,24.12
2018-08-19T19:59:40.664Z,24.15
2018-08-19T20:02:16.700Z,24.08
2018-08-19T20:04:46.024Z,24.06
2018-08-19T20:07:15.205Z,24.01
2018-08-19T20:09:44.605Z,23.88
2018-08-19T20:12:18.083Z,23.78
2018-08-19T20:14:51.117Z,23.77
2018-08-19T20:17:21.115Z,23.73
2018-08-19T20:19:50.502Z,23.63
2018-08-19T20:22:20.126Z,23.53
2018-08-19T20:24:49.309Z,23.57
2018-08-19T20:27:18.532Z,23.53
2018-08-19T20:29:52.542Z,23.52
2018-08-19T20:32:22.467Z,23.46
2018-08-19T20:34:51.967Z,23.43
2018-08-19T20:37:23.952Z,23.41
2018-08-19T20:39:53.779Z,23.44
2018-08-19T20:42:23.082Z,23.33
2018-08-19T20:44:52.658Z,23.38
2018-08-19T20:47:21.858Z,23.40
2018-08-19T20:49:51.396Z,23.34
2018-08-19T20:52:34.308Z,23.27
2018-08-19T20:55:03.841Z,23.28
2018-08-19T20:57:34.181Z,23.24
2018-08-19T21:00:03.679Z,23.21
2018-08-19T21:02:33.020Z,23.09
2018-08-19T21:05:02.324Z,23.09
2018-08-19T21:07:31.567Z,23.09
2018-08-19T21:10:00.761Z,23.18
2018-08-19T21:12:29.999Z,23.22
2018-08-19T21:14:59.170Z,23.28
2018-08-19T21:17:29.737Z,23.40
2018-08-19T21:19:58.947Z,23.48
2018-08-19T21:22:28.148Z,23.56
2018-08-19T21:24:57.395Z,23.62
2018-08-19T21:27:26.602Z,23.68
2018-08-19T21:29:55.910Z,23.70
2018-08-19T21:32:25.393Z,23.76
2018-08-19T21:34:54.585Z,23.70
2018-08-19T21:37:27.995Z,23.72
2018-08-19T21:39:57.213Z,23.73
2018-08-19T21:42:26.805Z,23.71
2018-08-19T21:44:56.027Z,23.66
2018-08-19T21:47:25.242Z,23.68
2018-08-19T21:49:58.674Z,23.65
2018-08-19T21:52:27.879Z,23.63
2018-08-19T21:54:57.060Z,23.64
2018-08-19T21:57:26.274Z,23.64
2018-08-19T21:59:55.464Z,23.61
2018-08-19T22:03:31.500Z,23.62
2018-08-19T22:06:03.801Z,23.62
2018-08-19T22:08:33.367Z,23.57
2018-08-19T22:11:02.568Z,23.57
2018-08-19T22:13:31.764Z,23.55
2018-08-19T22:16:01.005Z,23.52
2018-08-19T22:18:31.460Z,23.51
2018-08-19T22:21:23.528Z,23.45
2018-08-19T22:23:56.008Z,23.41
2018-08-19T22:26:25.260Z,23.36
2018-08-19T22:29:08.685Z,23.34
2018-08-19T22:31:38.396Z,23.29
2018-08-19T22:34:07.600Z,23.20
2018-08-19T22:36:36.985Z,23.17
2018-08-19T22:39:08.760Z,23.13
2018-08-19T22:41:37.526Z,23.12
2018-08-19T22:44:06.195Z,23.14
2018-08-19T22:46:35.380Z,23.12
2018-08-19T22:49:06.134Z,23.07
2018-08-19T22:51:35.553Z,23.08
2018-08-19T22:54:04.219Z,23.03
2018-08-19T22:56:33.434Z,23.03
2018-08-19T22:59:02.193Z,23.00
2018-08-19T23:01:37.056Z,22.91
2018-08-19T23:04:06.486Z,22.85
2018-08-19T23:06:35.834Z,22.84
2018-08-19T23:09:06.628Z,22.80
2018-08-19T23:11:41.683Z,22.79
2018-08-19T23:14:22.210Z,22.75
2018-08-19T23:16:51.694Z,22.73
2018-08-19T23:19:22.533Z,22.70
2018-08-19T23:21:52.254Z,22.67
2018-08-19T23:24:21.439Z,22.67
2018-08-19T23:26:51.134Z,22.63
2018-08-19T23:29:20.404Z,22.65
2018-08-19T23:31:49.627Z,22.66
2018-08-19T23:34:19.108Z,22.64
2018-08-19T23:36:48.429Z,22.63
2018-08-19T23:39:17.067Z,22.65
2018-08-19T23:41:46.276Z,22.61
2018-08-19T23:44:15.496Z,22.66
2018-08-19T23:46:44.822Z,22.63
2018-08-19T23:49:13.470Z,22.66
2018-08-19T23:51:42.752Z,22.69
2018-08-19T23:54:11.932Z,22.69
2018-08-19T23:56:41.133Z,22.69
2018-08-19T23:59:09.790Z,22.72
